Time;durP1;ratioP1;P1;durP2;ratioP2;P2;SDS_P1;SDS_P2;PMS_P1;PMS_P2;Temp;Humidity;BMP_temperature;BMP_pressure;BME280_temperature;BME280_humidity;BME280_pressure;Samples;Min_cycle;Max_cycle;Signal;HPM_P1;HPM_P2
2023/06/26 00:02:17;;;;;;;10.05;8.00;;;24.80;91.50;;;;;;4959668;28;20023;-79
2023/06/26 00:04:44;;;;;;;8.93;7.75;;;24.90;91.30;;;;;;4949361;28;20029;-80
2023/06/26 00:07:10;;;;;;;10.13;7.95;;;24.80;91.70;;;;;;4945977;28;20031;-79
2023/06/26 00:09:35;;;;;;;10.35;7.93;;;24.90;91.90;;;;;;4958121;28;20762;-79
2023/06/26 00:12:03;;;;;;;9.65;7.85;;;24.80;91.90;;;;;;4950986;28;20029;-79
2023/06/26 00:14:29;;;;;;;14.32;8.27;;;24.80;92.20;;;;;;4942793;28;20101;-79
2023/06/26 00:16:55;;;;;;;10.20;8.27;;;24.80;92.30;;;;;;4961431;28;20475;-79
2023/06/26 00:19:20;;;;;;;11.00;8.48;;;24.80;92.50;;;;;;4942800;28;20431;-80
2023/06/26 00:21:47;;;;;;;11.23;8.02;;;24.70;92.40;;;;;;4960699;28;20581;-79
2023/06/26 00:24:14;;;;;;;13.10;8.45;;;24.70;92.80;;;;;;4959374;28;20040;-79
2023/06/26 00:26:42;;;;;;;13.43;9.05;;;24.70;93.00;;;;;;4943418;28;20037;-79
2023/06/26 00:29:09;;;;;;;10.70;8.48;;;24.60;93.00;;;;;;4942581;28;20038;-79
2023/06/26 00:31:35;;;;;;;9.82;8.32;;;24.60;93.20;;;;;;4958647;28;20133;-80
2023/06/26 00:34:01;;;;;;;10.38;8.30;;;24.50;93.40;;;;;;4942167;28;20142;-78
2023/06/26 00:36:27;;;;;;;12.38;8.60;;;24.50;93.50;;;;;;4961188;28;20149;-80
2023/06/26 00:38:53;;;;;;;13.57;8.48;;;24.50;93.50;;;;;;4943444;28;20489;-79
2023/06/26 00:41:21;;;;;;;9.07;8.00;;;24.40;93.90;;;;;;4970856;28;20035;-79
2023/06/26 00:43:47;;;;;;;12.23;8.70;;;24.40;94.10;;;;;;4950647;28;20670;-79
2023/06/26 00:46:13;;;;;;;9.77;8.55;;;24.40;94.20;;;;;;4970198;28;20054;-80
2023/06/26 00:48:42;;;;;;;14.13;7.72;;;24.30;94.30;;;;;;4950624;28;20065;-79
2023/06/26 00:51:08;;;;;;;11.93;8.73;;;24.30;94.00;;;;;;4959200;28;20031;-79
2023/06/26 00:53:34;;;;;;;11.20;8.15;;;24.30;94.40;;;;;;4959927;28;20023;-79
2023/06/26 00:56:01;;;;;;;12.60;8.85;;;24.20;94.40;;;;;;4961662;28;20452;-79
2023/06/26 00:58:27;;;;;;;12.18;8.70;;;24.20;94.40;;;;;;4959910;28;20035;-79
2023/06/26 01:00:53;;;;;;;11.80;8.90;;;24.10;94.80;;;;;;4960557;28;20414;-79
2023/06/26 01:03:20;;;;;;;14.60;8.98;;;24.10;94.80;;;;;;4962951;28;20019;-80
2023/06/26 01:05:49;;;;;;;11.10;8.70;;;24.10;95.10;;;;;;4963656;28;20027;-80
2023/06/26 01:08:15;;;;;;;12.18;8.90;;;24.00;95.10;;;;;;4961508;28;20023;-79
2023/06/26 01:10:42;;;;;;;18.98;8.80;;;24.00;95.30;;;;;;4960567;28;20023;-79
2023/06/26 01:13:08;;;;;;;14.10;9.02;;;23.90;95.50;;;;;;4964356;28;20035;-79
2023/06/26 01:15:34;;;;;;;10.63;8.43;;;24.00;95.70;;;;;;4962566;28;20023;-79
2023/06/26 01:18:03;;;;;;;12.20;8.82;;;23.90;95.80;;;;;;4960971;28;20998;-80
2023/06/26 01:20:33;;;;;;;9.95;8.65;;;23.90;95.90;;;;;;4961970;28;20051;-79
2023/06/26 01:23:05;;;;;;;11.02;9.15;;;23.90;96.10;;;;;;4964300;28;20046;-79
2023/06/26 01:25:47;;;;;;;12.85;9.02;;;23.90;96.20;;;;;;4961391;28;20019;-79
2023/06/26 01:28:13;;;;;;;12.68;8.20;;;23.80;96.30;;;;;;4961499;28;20438;-79
2023/06/26 01:30:42;;;;;;;16.08;9.00;;;23.80;96.70;;;;;;4964112;28;20015;-79
2023/06/26 01:33:08;;;;;;;12.13;8.00;;;23.80;96.60;;;;;;4962360;28;20094;-79
2023/06/26 01:35:35;;;;;;;10.63;8.48;;;23.70;96.90;;;;;;4960721;28;20063;-79
2023/06/26 01:38:16;;;;;;;14.40;9.13;;;23.70;97.10;;;;;;4961569;28;20030;-79
2023/06/26 01:40:43;;;;;;;10.18;8.48;;;23.70;97.20;;;;;;4962348;28;20027;-79
2023/06/26 01:43:20;;;;;;;13.48;8.57;;;23.70;97.70;;;;;;4965796;28;20031;-79
2023/06/26 01:45:50;;;;;;;26.38;9.13;;;23.70;97.70;;;;;;4942375;28;20023;-79
2023/06/26 01:48:19;;;;;;;14.25;9.07;;;23.60;98.00;;;;;;4947285;28;20124;-79
2023/06/26 01:50:45;;;;;;;12.65;8.85;;;23.60;98.30;;;;;;4940018;28;20031;-79
2023/06/26 01:53:17;;;;;;;14.73;8.73;;;23.60;98.50;;;;;;4941387;28;20499;-79
2023/06/26 01:56:09;;;;;;;13.15;9.07;;;23.50;98.80;;;;;;4965779;28;20034;-79
2023/06/26 01:58:37;;;;;;;12.38;9.13;;;23.50;99.30;;;;;;4964345;28;20463;-79
2023/06/26 02:01:03;;;;;;;11.02;8.68;;;23.30;99.90;;;;;;4965034;28;20557;-78
2023/06/26 02:03:30;;;;;;;13.45;8.98;;;23.30;99.90;;;;;;4964775;28;20023;-79
2023/06/26 02:05:55;;;;;;;14.02;8.98;;;23.30;99.90;;;;;;4951701;28;20039;-79
2023/06/26 02:08:22;;;;;;;12.60;9.38;;;23.20;99.90;;;;;;4965053;28;20114;-79
2023/06/26 02:10:48;;;;;;;17.55;9.75;;;23.10;99.90;;;;;;4947828;28;20089;-79
2023/06/26 02:13:14;;;;;;;14.35;9.63;;;23.00;99.90;;;;;;4965775;28;20027;-78
2023/06/26 02:15:39;;;;;;;16.63;9.85;;;23.00;99.90;;;;;;4965021;28;20047;-78
2023/06/26 02:18:05;;;;;;;12.55;9.30;;;22.90;99.90;;;;;;4967376;28;20045;-79
2023/06/26 02:20:31;;;;;;;13.05;9.95;;;22.90;99.90;;;;;;4965071;28;20031;-79
2023/06/26 02:22:59;;;;;;;11.57;10.05;;;22.80;99.90;;;;;;4961533;28;20019;-79
2023/06/26 02:25:27;;;;;;;13.18;9.32;;;22.80;99.90;;;;;;4965078;28;20513;-79
2023/06/26 02:27:53;;;;;;;14.20;9.18;;;22.90;99.90;;;;;;4962540;28;20030;-79
2023/06/26 02:30:21;;;;;;;13.55;9.65;;;22.80;99.90;;;;;;4947300;28;20027;-78
2023/06/26 02:32:46;;;;;;;12.43;9.80;;;22.70;99.90;;;;;;4960332;28;20052;-79
2023/06/26 02:35:12;;;;;;;15.68;9.70;;;22.70;99.90;;;;;;4948081;28;20148;-78
2023/06/26 02:37:38;;;;;;;14.10;9.70;;;22.70;99.90;;;;;;4963344;28;20019;-79
2023/06/26 02:40:05;;;;;;;18.42;9.60;;;22.70;99.90;;;;;;4963214;28;20038;-79
2023/06/26 02:42:31;;;;;;;10.73;8.77;;;22.70;99.90;;;;;;4964778;28;20046;-79
2023/06/26 02:44:57;;;;;;;11.80;9.00;;;22.70;99.90;;;;;;4946659;28;20070;-79
2023/06/26 02:47:25;;;;;;;16.33;9.15;;;22.70;99.90;;;;;;4964223;28;20093;-78
2023/06/26 02:49:50;;;;;;;15.70;8.90;;;22.70;99.90;;;;;;4946645;28;20414;-79
2023/06/26 02:52:16;;;;;;;15.48;9.95;;;22.70;99.90;;;;;;4947130;28;20027;-79
2023/06/26 02:54:41;;;;;;;12.63;9.63;;;22.70;99.90;;;;;;4965495;28;20455;-79
2023/06/26 02:57:07;;;;;;;15.85;10.10;;;22.70;99.90;;;;;;4962465;28;20031;-79
2023/06/26 02:59:35;;;;;;;12.68;9.40;;;22.80;99.90;;;;;;4967481;28;20494;-79
2023/06/26 03:02:01;;;;;;;12.63;10.05;;;22.90;99.90;;;;;;4952230;28;20035;-79
2023/06/26 03:04:26;;;;;;;16.73;10.27;;;22.90;99.90;;;;;;4973855;28;20078;-79
2023/06/26 03:06:52;;;;;;;14.70;9.38;;;23.00;99.90;;;;;;4973357;28;20035;-78
2023/06/26 03:09:17;;;;;;;14.93;9.93;;;23.00;99.90;;;;;;4964741;28;20046;-79
2023/06/26 03:11:43;;;;;;;15.02;10.20;;;23.00;99.90;;;;;;4963500;28;20101;-79
2023/06/26 03:14:11;;;;;;;12.43;10.05;;;23.00;99.90;;;;;;4962848;28;20029;-79
2023/06/26 03:16:37;;;;;;;12.55;9.93;;;23.00;99.90;;;;;;4960383;28;20222;-79
2023/06/26 03:19:03;;;;;;;13.05;9.07;;;23.00;99.90;;;;;;4961779;28;20837;-78
2023/06/26 03:21:28;;;;;;;12.10;8.40;;;22.90;99.90;;;;;;4963886;28;20467;-79
2023/06/26 03:23:54;;;;;;;9.15;8.25;;;22.90;99.90;;;;;;4939542;28;20050;-79
2023/06/26 03:26:20;;;;;;;13.57;8.00;;;22.70;99.90;;;;;;4962005;28;20135;-79
2023/06/26 03:28:45;;;;;;;17.38;7.95;;;22.70;99.90;;;;;;4962033;28;20050;-79
2023/06/26 03:31:11;;;;;;;12.75;8.15;;;22.70;99.90;;;;;;4960296;28;20023;-79
2023/06/26 03:33:38;;;;;;;15.52;7.53;;;22.70;99.90;;;;;;4962242;28;20549;-78
2023/06/26 03:36:04;;;;;;;8.95;7.32;;;22.60;99.90;;;;;;4961963;28;20581;-78
2023/06/26 03:38:29;;;;;;;12.43;7.70;;;22.60;99.90;;;;;;4962030;28;20018;-78
2023/06/26 03:40:55;;;;;;;11.63;7.25;;;22.60;99.90;;;;;;4963922;28;20364;-77
2023/06/26 03:43:21;;;;;;;8.60;6.90;;;22.60;99.90;;;;;;4945220;28;20341;-79
2023/06/26 03:45:46;;;;;;;7.15;6.45;;;22.50;99.90;;;;;;4963783;28;20022;-79
2023/06/26 03:48:12;;;;;;;7.38;6.25;;;22.50;99.90;;;;;;4964846;28;20533;-78
2023/06/26 03:50:37;;;;;;;6.47;5.72;;;22.40;99.90;;;;;;4965175;28;20031;-79
2023/06/26 03:53:03;;;;;;;9.93;6.00;;;22.40;99.90;;;;;;4965763;28;20554;-79
2023/06/26 03:55:31;;;;;;;8.68;5.28;;;22.40;99.90;;;;;;4950332;28;20026;-78
2023/06/26 03:57:56;;;;;;;8.20;5.15;;;22.50;99.90;;;;;;4961247;28;20026;-77
2023/06/26 04:00:23;;;;;;;7.75;5.10;;;22.40;99.90;;;;;;4948802;28;20035;-78
2023/06/26 04:02:48;;;;;;;10.00;5.30;;;22.40;99.90;;;;;;4964985;28;20027;-78
2023/06/26 04:05:14;;;;;;;10.20;4.80;;;22.40;99.90;;;;;;4966455;28;20023;-77
2023/06/26 04:07:40;;;;;;;9.93;4.30;;;22.30;99.90;;;;;;4966908;28;20031;-77
2023/06/26 04:10:06;;;;;;;8.75;4.93;;;22.40;99.90;;;;;;4950264;28;20034;-77
2023/06/26 04:12:32;;;;;;;9.82;4.90;;;22.50;99.90;;;;;;4966026;28;20674;-77
2023/06/26 04:14:57;;;;;;;10.98;5.03;;;22.50;99.90;;;;;;4966693;28;20031;-77
2023/06/26 04:17:23;;;;;;;12.43;5.43;;;22.50;99.90;;;;;;4966276;28;20034;-76
2023/06/26 04:19:49;;;;;;;6.53;4.30;;;22.40;99.90;;;;;;4962825;28;20522;-77
2023/06/26 04:22:14;;;;;;;12.02;4.75;;;22.40;99.90;;;;;;4958118;28;20110;-75
2023/06/26 04:24:40;;;;;;;6.90;5.00;;;22.30;99.90;;;;;;4963496;28;20027;-76
2023/06/26 04:27:05;;;;;;;8.32;4.85;;;22.40;99.90;;;;;;4964997;28;20790;-76
2023/06/26 04:29:31;;;;;;;8.18;4.85;;;22.40;99.90;;;;;;4963194;28;20039;-76
2023/06/26 04:31:59;;;;;;;8.52;4.40;;;22.40;99.90;;;;;;4963389;28;20030;-77
2023/06/26 04:34:26;;;;;;;14.90;4.50;;;22.40;99.90;;;;;;4958669;28;20672;-77
2023/06/26 04:36:54;;;;;;;11.70;5.28;;;22.50;99.90;;;;;;4965187;28;20027;-76
2023/06/26 04:39:20;;;;;;;13.90;4.95;;;22.60;99.90;;;;;;4964179;28;20023;-76
2023/06/26 04:41:48;;;;;;;9.05;5.15;;;22.60;99.90;;;;;;4964640;28;20611;-77
2023/06/26 04:44:13;;;;;;;12.35;4.95;;;22.70;99.90;;;;;;4963112;28;20042;-77
2023/06/26 04:46:42;;;;;;;13.45;4.85;;;22.70;99.90;;;;;;4952214;28;20483;-76
2023/06/26 04:49:08;;;;;;;11.70;4.90;;;22.70;99.90;;;;;;4964170;28;20208;-76
2023/06/26 04:51:40;;;;;;;11.68;4.65;;;22.70;99.90;;;;;;4963018;28;20063;-76
2023/06/26 04:54:09;;;;;;;10.73;5.65;;;22.70;99.90;;;;;;4962944;28;20038;-76
2023/06/26 04:56:35;;;;;;;15.27;5.30;;;22.70;99.90;;;;;;4954802;28;20023;-77
2023/06/26 04:59:02;;;;;;;12.10;5.03;;;22.70;99.90;;;;;;4964234;28;20517;-76
2023/06/26 05:01:29;;;;;;;10.57;6.10;;;22.70;99.90;;;;;;4962098;28;20018;-76
2023/06/26 05:03:58;;;;;;;12.90;5.78;;;22.80;99.90;;;;;;4946731;28;20058;-78
2023/06/26 05:06:23;;;;;;;11.70;5.53;;;22.80;99.90;;;;;;4965439;28;20030;-77
2023/06/26 05:08:49;;;;;;;12.30;6.10;;;22.80;99.90;;;;;;4962224;28;20546;-76
2023/06/26 05:11:15;;;;;;;10.38;6.57;;;22.80;99.90;;;;;;4964818;28;20582;-78
2023/06/26 05:13:41;;;;;;;13.38;6.38;;;22.90;99.90;;;;;;4964264;28;20027;-78
2023/06/26 05:16:09;;;;;;;11.50;6.13;;;23.00;99.90;;;;;;4965738;28;20219;-80
2023/06/26 05:18:35;;;;;;;15.30;6.18;;;22.70;99.90;;;;;;4967198;28;20410;-80
2023/06/26 05:21:01;;;;;;;13.68;6.32;;;22.60;99.90;;;;;;4991778;28;20031;-79
2023/06/26 05:23:31;;;;;;;14.90;6.40;;;22.70;99.90;;;;;;4987063;28;20038;-79
2023/06/26 05:25:57;;;;;;;12.35;6.00;;;22.60;99.90;;;;;;4975917;28;20034;-80
2023/06/26 05:28:24;;;;;;;10.85;6.68;;;22.60;99.90;;;;;;4968055;28;20027;-80
2023/06/26 05:30:51;;;;;;;12.63;6.20;;;22.60;99.90;;;;;;4967266;28;20030;-80
2023/06/26 05:33:19;;;;;;;9.05;5.57;;;22.70;99.90;;;;;;4949447;28;21255;-80
2023/06/26 05:35:48;;;;;;;12.45;6.65;;;22.70;99.90;;;;;;4966442;28;20522;-80
2023/06/26 05:38:14;;;;;;;10.68;5.53;;;22.60;99.90;;;;;;4967836;28;20067;-81
2023/06/26 05:40:40;;;;;;;14.10;5.90;;;22.60;99.90;;;;;;4964585;28;20022;-80
2023/06/26 05:43:07;;;;;;;13.02;5.70;;;22.60;99.90;;;;;;4968219;28;20027;-79
2023/06/26 05:45:33;;;;;;;12.15;6.20;;;22.40;99.90;;;;;;4968791;28;20023;-79
2023/06/26 05:48:00;;;;;;;14.57;5.40;;;22.40;99.90;;;;;;4949025;28;20061;-80
2023/06/26 05:50:26;;;;;;;10.63;5.25;;;22.30;99.90;;;;;;4967647;28;20043;-81
2023/06/26 05:52:52;;;;;;;12.90;5.70;;;22.30;99.90;;;;;;4967314;28;20078;-80
2023/06/26 05:55:18;;;;;;;12.45;5.68;;;22.40;99.90;;;;;;4949306;28;20023;-78
2023/06/26 05:57:48;;;;;;;14.23;5.80;;;22.30;99.90;;;;;;4948018;28;20113;-79
2023/06/26 06:00:14;;;;;;;16.42;7.25;;;22.30;99.90;;;;;;4962340;28;20600;-77
2023/06/26 06:02:41;;;;;;;15.85;5.55;;;22.10;99.90;;;;;;4947935;28;20034;-77
2023/06/26 06:05:07;;;;;;;20.38;6.05;;;22.10;99.90;;;;;;4966746;28;20478;-77
2023/06/26 06:07:33;;;;;;;13.38;5.82;;;22.20;99.90;;;;;;4965326;28;20050;-78
2023/06/26 06:09:59;;;;;;;16.02;5.90;;;22.30;99.90;;;;;;4949755;28;20047;-78
2023/06/26 06:12:25;;;;;;;20.00;6.28;;;22.40;99.90;;;;;;4947920;28;20031;-77
2023/06/26 06:14:53;;;;;;;15.80;6.40;;;22.40;99.90;;;;;;4966034;28;20014;-77
2023/06/26 06:17:20;;;;;;;14.70;6.20;;;22.40;99.90;;;;;;4967012;28;20043;-77
2023/06/26 06:19:46;;;;;;;17.70;6.50;;;22.40;99.90;;;;;;4965156;28;20026;-77
2023/06/26 06:22:12;;;;;;;13.55;6.80;;;22.50;99.90;;;;;;4967727;28;20509;-79
2023/06/26 06:24:39;;;;;;;13.07;6.65;;;22.60;99.90;;;;;;4951712;28;20050;-80
2023/06/26 06:27:05;;;;;;;14.45;7.18;;;22.70;99.90;;;;;;4966442;28;20037;-76
2023/06/26 06:29:31;;;;;;;18.60;6.60;;;22.80;99.90;;;;;;4966361;28;20475;-77
2023/06/26 06:31:57;;;;;;;19.85;6.78;;;23.00;99.90;;;;;;4967683;28;20077;-80
2023/06/26 06:34:23;;;;;;;18.75;7.03;;;23.10;99.90;;;;;;4968604;28;20093;-78
2023/06/26 06:36:49;;;;;;;16.48;7.68;;;23.00;99.90;;;;;;4968170;28;20481;-78
2023/06/26 06:39:16;;;;;;;12.93;7.03;;;23.00;99.90;;;;;;4968041;28;20146;-81
2023/06/26 06:41:41;;;;;;;17.63;6.82;;;22.90;99.90;;;;;;4973407;28;20089;-78
2023/06/26 06:44:10;;;;;;;16.15;7.50;;;22.70;99.90;;;;;;4965573;28;20027;-78
2023/06/26 06:46:35;;;;;;;22.08;8.05;;;22.60;99.90;;;;;;4948689;28;20474;-78
2023/06/26 06:49:01;;;;;;;14.05;7.05;;;22.50;99.90;;;;;;4938577;28;20043;-79
2023/06/26 06:51:29;;;;;;;19.73;7.63;;;22.50;99.90;;;;;;4946745;28;20915;-79
2023/06/26 06:53:59;;;;;;;17.13;7.10;;;22.50;99.90;;;;;;4946358;28;20435;-80
2023/06/26 06:56:25;;;;;;;24.55;8.00;;;22.70;99.90;;;;;;4965713;28;20034;-78
2023/06/26 06:58:50;;;;;;;23.85;7.50;;;22.70;99.90;;;;;;4961845;28;20510;-80
2023/06/26 07:01:16;;;;;;;16.88;7.13;;;22.90;99.90;;;;;;4961526;28;20051;-80
2023/06/26 07:03:42;;;;;;;18.98;7.13;;;23.00;99.90;;;;;;4962037;28;20018;-81
2023/06/26 07:06:07;;;;;;;24.73;8.05;;;23.00;99.90;;;;;;4966497;28;20023;-79
2023/06/26 07:08:33;;;;;;;23.42;8.10;;;23.00;99.90;;;;;;4964260;28;20431;-79
2023/06/26 07:10:59;;;;;;;22.60;7.60;;;23.10;99.90;;;;;;4948990;28;20914;-78
2023/06/26 07:13:25;;;;;;;20.65;7.28;;;23.20;99.90;;;;;;4965541;28;20038;-79
2023/06/26 07:15:51;;;;;;;19.63;6.63;;;23.40;99.90;;;;;;4950201;28;20046;-80
2023/06/26 07:18:16;;;;;;;14.73;5.95;;;23.50;99.90;;;;;;4965703;28;20494;-80
2023/06/26 07:20:42;;;;;;;17.98;6.28;;;23.70;99.90;;;;;;4948762;28;20030;-79
2023/06/26 07:23:08;;;;;;;13.23;5.45;;;23.70;99.90;;;;;;4967320;28;20595;-79
2023/06/26 07:25:36;;;;;;;15.27;5.03;;;23.70;99.90;;;;;;4966595;28;20050;-79
2023/06/26 07:28:01;;;;;;;12.43;5.35;;;23.60;99.90;;;;;;4966271;28;20026;-80
2023/06/26 07:30:27;;;;;;;21.15;6.15;;;23.80;99.90;;;;;;4967034;28;20356;-80
2023/06/26 07:32:55;;;;;;;13.55;4.80;;;23.90;99.90;;;;;;4966038;28;20029;-78
2023/06/26 07:35:23;;;;;;;16.95;4.60;;;24.10;99.90;;;;;;4954856;28;20039;-80
2023/06/26 07:37:48;;;;;;;11.95;4.38;;;24.30;99.90;;;;;;4990769;28;20066;-79
2023/06/26 07:40:17;;;;;;;15.40;4.25;;;24.40;99.90;;;;;;4982659;28;20030;-79
2023/06/26 07:42:46;;;;;;;9.40;4.38;;;24.40;99.90;;;;;;4974156;28;20027;-79
2023/06/26 07:45:12;;;;;;;15.10;3.92;;;24.30;99.90;;;;;;4969578;28;20019;-79
2023/06/26 07:50:25;;;;;;;12.02;4.10;;;24.60;99.90;;;;;;5164898;23;20061;-78
2023/06/26 07:52:53;;;;;;;13.93;4.60;;;24.80;99.90;;;;;;4957274;28;20402;-79
2023/06/26 07:55:19;;;;;;;12.32;4.88;;;24.50;99.90;;;;;;4951985;28;20034;-79
2023/06/26 07:57:45;;;;;;;14.23;4.45;;;24.50;99.90;;;;;;4972871;28;20021;-79
2023/06/26 08:00:11;;;;;;;14.63;4.35;;;24.60;99.90;;;;;;4954967;28;20384;-78
2023/06/26 08:02:39;;;;;;;11.02;4.05;;;24.70;99.90;;;;;;4956808;28;20030;-79
2023/06/26 08:05:05;;;;;;;11.32;4.07;;;24.60;99.90;;;;;;4972476;28;20057;-79
2023/06/26 08:07:33;;;;;;;11.90;4.47;;;24.50;99.90;;;;;;4971274;28;20537;-81
2023/06/26 08:09:59;;;;;;;16.23;4.25;;;24.50;99.90;;;;;;4954502;28;20057;-79
2023/06/26 08:12:24;;;;;;;13.02;3.67;;;24.40;99.90;;;;;;4970766;28;20046;-78
2023/06/26 08:14:50;;;;;;;10.63;3.75;;;24.40;99.90;;;;;;4956554;28;20395;-80
2023/06/26 08:17:16;;;;;;;7.90;3.30;;;24.80;99.90;;;;;;4987946;28;20371;-79
2023/06/26 08:19:41;;;;;;;5.30;3.25;;;25.20;99.70;;;;;;4998998;28;20034;-80
2023/06/26 08:22:07;;;;;;;7.30;3.42;;;25.50;97.90;;;;;;4972145;28;20035;-79
2023/06/26 08:24:32;;;;;;;30.40;13.05;;;25.80;97.40;;;;;;4972887;28;20387;-78
2023/06/26 08:26:58;;;;;;;12.23;4.07;;;26.10;97.00;;;;;;4969150;28;20127;-78
2023/06/26 08:29:24;;;;;;;8.20;4.25;;;26.30;96.70;;;;;;4969956;28;20041;-80
2023/06/26 08:31:50;;;;;;;6.90;2.95;;;26.50;96.30;;;;;;4951202;28;20601;-80
2023/06/26 08:34:15;;;;;;;6.07;2.97;;;26.60;95.70;;;;;;4970872;28;20561;-80
2023/06/26 08:36:41;;;;;;;9.23;4.00;;;26.10;95.50;;;;;;4970900;28;20458;-81
2023/06/26 08:39:08;;;;;;;10.35;2.92;;;25.50;96.20;;;;;;4967870;28;20042;-80
2023/06/26 08:41:34;;;;;;;8.23;2.92;;;25.30;97.10;;;;;;4969239;28;20116;-80
2023/06/26 08:44:00;;;;;;;8.05;3.33;;;25.50;96.90;;;;;;4973253;28;20030;-80
2023/06/26 08:46:27;;;;;;;10.77;3.60;;;26.00;96.60;;;;;;5089370;23;20490;-81
2023/06/26 08:49:01;;;;;;;9.05;3.40;;;26.70;95.80;;;;;;4990702;28;20054;-81
2023/06/26 08:51:30;;;;;;;8.95;4.15;;;26.50;95.50;;;;;;5112973;23;20046;-80
2023/06/26 08:54:00;;;;;;;13.80;3.90;;;26.00;96.00;;;;;;4981213;28;20092;-80
2023/06/26 08:56:35;;;;;;;17.50;3.45;;;25.70;96.70;;;;;;4980867;28;20030;-79
2023/06/26 08:59:01;;;;;;;9.05;3.28;;;25.60;97.00;;;;;;4980673;28;20023;-81
2023/06/26 09:01:27;;;;;;;10.00;4.05;;;25.80;95.90;;;;;;4978950;28;20740;-80
2023/06/26 09:03:53;;;;;;;4.80;3.25;;;26.20;95.70;;;;;;4978398;28;20151;-81
2023/06/26 09:06:19;;;;;;;6.07;3.10;;;26.20;94.90;;;;;;4953740;28;20079;-80
2023/06/26 09:08:45;;;;;;;9.70;3.80;;;26.40;95.00;;;;;;4976479;28;20168;-80
2023/06/26 09:11:13;;;;;;;4.93;3.50;;;26.70;94.00;;;;;;4978915;28;20080;-81
2023/06/26 09:13:43;;;;;;;5.88;3.72;;;26.40;93.80;;;;;;4953263;28;20113;-80
2023/06/26 09:16:09;;;;;;;7.05;3.60;;;26.20;94.10;;;;;;4977229;28;20041;-81
2023/06/26 09:18:35;;;;;;;8.43;3.45;;;26.20;94.80;;;;;;4978125;28;20030;-81
2023/06/26 09:21:08;;;;;;;6.95;3.28;;;26.70;94.30;;;;;;4963171;28;20101;-79
2023/06/26 09:23:35;;;;;;;7.10;3.75;;;27.40;93.30;;;;;;4984830;28;20053;-81
2023/06/26 09:26:03;;;;;;;7.10;3.70;;;27.40;92.70;;;;;;4962492;28;20037;-80
2023/06/26 09:28:30;;;;;;;11.00;4.22;;;27.40;93.60;;;;;;4959656;28;20033;-82
2023/06/26 09:31:04;;;;;;;7.15;3.78;;;27.70;92.30;;;;;;4979790;28;20043;-78
2023/06/26 09:33:37;;;;;;;6.63;3.45;;;27.60;90.60;;;;;;4978149;28;20022;-79
2023/06/26 09:36:06;;;;;;;7.28;4.00;;;27.80;90.50;;;;;;4981476;28;21525;-82
2023/06/26 09:38:34;;;;;;;9.57;3.75;;;27.30;91.20;;;;;;4976852;28;20042;-80
2023/06/26 09:41:00;;;;;;;5.75;3.60;;;26.60;92.40;;;;;;4958458;28;20040;-82
2023/06/26 09:43:26;;;;;;;8.98;3.63;;;26.50;92.70;;;;;;4962681;28;20425;-79
2023/06/26 09:45:55;;;;;;;12.00;3.65;;;26.60;93.20;;;;;;4980928;28;20137;-80
2023/06/26 09:48:21;;;;;;;6.95;3.80;;;27.40;92.90;;;;;;4953666;28;20022;-78
2023/06/26 09:50:47;;;;;;;7.53;3.85;;;27.80;90.80;;;;;;4982479;28;20061;-79
2023/06/26 09:53:13;;;;;;;9.73;4.00;;;28.30;90.30;;;;;;4989666;28;20030;-80
2023/06/26 09:55:45;;;;;;;5.55;3.38;;;27.90;90.20;;;;;;5007303;28;20019;-80
2023/06/26 09:58:15;;;;;;;9.90;3.10;;;27.30;91.10;;;;;;4975545;28;20541;-79
2023/06/26 10:00:43;;;;;;;5.35;3.13;;;26.70;91.30;;;;;;4965491;28;20077;-79
2023/06/26 10:03:10;;;;;;;8.05;3.00;;;26.40;90.50;;;;;;4978361;28;20233;-80
2023/06/26 10:05:36;;;;;;;7.65;3.53;;;26.20;90.60;;;;;;4980916;28;20034;-79
2023/06/26 10:08:04;;;;;;;6.70;3.30;;;26.60;91.10;;;;;;4977869;28;20388;-78
2023/06/26 10:10:33;;;;;;;5.03;3.28;;;27.10;90.70;;;;;;4960616;28;20038;-78
2023/06/26 10:13:04;;;;;;;3.90;3.10;;;27.10;90.00;;;;;;4977059;28;20475;-78
2023/06/26 10:15:32;;;;;;;5.57;2.95;;;26.50;89.70;;;;;;4957157;28;20026;-78
2023/06/26 10:17:58;;;;;;;5.68;2.85;;;26.30;89.90;;;;;;4977077;28;20601;-78
2023/06/26 10:20:26;;;;;;;9.23;2.40;;;26.00;89.90;;;;;;4958957;28;20483;-79
2023/06/26 10:22:54;;;;;;;8.48;2.28;;;25.90;88.10;;;;;;4970539;28;20061;-81
2023/06/26 10:25:21;;;;;;;10.68;1.92;;;26.30;87.60;;;;;;4991310;28;20014;-80
2023/06/26 10:27:55;;;;;;;3.70;1.85;;;27.20;85.70;;;;;;4989405;28;20057;-80
2023/06/26 10:30:26;;;;;;;2.47;2.13;;;28.20;84.40;;;;;;4986008;28;20038;-79
2023/06/26 10:32:53;;;;;;;8.23;2.38;;;28.70;79.30;;;;;;4971491;28;20026;-78
2023/06/26 10:35:19;;;;;;;4.18;1.80;;;28.70;78.90;;;;;;4990602;28;20319;-79
2023/06/26 10:37:49;;;;;;;3.00;2.35;;;27.90;78.90;;;;;;4989610;28;20480;-78
2023/06/26 10:40:22;;;;;;;3.95;2.00;;;27.60;80.00;;;;;;5003651;28;20030;-79
2023/06/26 10:42:47;;;;;;;4.93;2.00;;;27.70;79.90;;;;;;5006696;28;20019;-78
2023/06/26 10:45:20;;;;;;;5.30;2.22;;;27.40;80.30;;;;;;4993122;28;20164;-78
2023/06/26 10:47:49;;;;;;;;;;;26.90;82.00;;;;;;4968128;28;20414;-79
2023/06/26 10:50:24;;;;;;;4.32;2.00;;;26.80;81.20;;;;;;4974365;28;19914;-78
2023/06/26 10:53:09;;;;;;;4.65;2.13;;;27.10;80.00;;;;;;4983375;28;20133;-79
2023/06/26 10:55:41;;;;;;;33.40;12.60;;;27.60;79.50;;;;;;4984449;28;20057;-77
2023/06/26 10:58:28;;;;;;;113.10;58.15;;;27.10;79.80;;;;;;4982805;28;20068;-79
2023/06/26 11:01:17;;;;;;;8.63;2.03;;;27.30;80.40;;;;;;4964285;28;20057;-81
2023/06/26 11:04:04;;;;;;;4.03;1.63;;;28.10;79.50;;;;;;4950720;28;20051;-81
2023/06/26 11:06:34;;;;;;;3.60;1.92;;;28.20;76.70;;;;;;4961925;28;20098;-81
2023/06/26 11:09:07;;;;;;;7.57;1.67;;;27.60;77.40;;;;;;4968408;28;20042;-82
2023/06/26 11:11:51;;;;;;;10.95;2.25;;;27.70;77.50;;;;;;4968437;28;20023;-82
2023/06/26 11:14:18;;;;;;;1.70;1.55;;;27.10;75.10;;;;;;4967094;28;20030;-79
2023/06/26 11:16:44;;;;;;;2.67;1.30;;;27.00;72.80;;;;;;4951621;28;20035;-80
2023/06/26 11:19:10;;;;;;;1.92;1.17;;;26.50;71.50;;;;;;4965465;28;20037;-80
2023/06/26 11:21:38;;;;;;;7.03;1.35;;;26.70;70.70;;;;;;4971905;28;20018;-80
2023/06/26 11:24:06;;;;;;;2.97;1.40;;;27.00;69.90;;;;;;4964577;28;20058;-80
2023/06/26 11:26:38;;;;;;;5.57;1.38;;;27.20;69.50;;;;;;4967871;28;20039;-80
2023/06/26 11:29:04;;;;;;;7.72;1.73;;;27.20;69.70;;;;;;4970344;28;20132;-79
2023/06/26 11:31:33;;;;;;;3.92;1.40;;;26.90;70.00;;;;;;4955374;28;20062;-81
2023/06/26 11:34:02;;;;;;;6.20;1.40;;;27.40;71.50;;;;;;4965479;28;20266;-81
2023/06/26 11:36:29;;;;;;;5.18;1.58;;;27.90;72.90;;;;;;4941732;28;20045;-79
2023/06/26 11:38:59;;;;;;;5.93;1.42;;;28.10;71.60;;;;;;4972052;28;20031;-79
2023/06/26 11:41:28;;;;;;;4.07;1.73;;;28.00;70.30;;;;;;4969237;28;20030;-82
2023/06/26 11:43:54;;;;;;;2.47;1.63;;;28.10;70.90;;;;;;4966153;28;20033;-82
2023/06/26 11:46:22;;;;;;;5.97;1.55;;;28.30;71.40;;;;;;4964379;28;20057;-83
2023/06/26 11:48:48;;;;;;;4.90;1.98;;;28.20;72.00;;;;;;4970016;28;20020;-84
2023/06/26 11:51:17;;;;;;;7.38;1.85;;;28.00;71.70;;;;;;4963006;28;20031;-83
2023/06/26 11:53:45;;;;;;;5.05;1.70;;;27.80;71.40;;;;;;4969586;28;20044;-83
2023/06/26 11:56:14;;;;;;;4.68;1.50;;;27.80;72.30;;;;;;4948506;28;20121;-83
2023/06/26 11:59:02;;;;;;;5.30;2.20;;;27.50;73.40;;;;;;4966479;28;20110;-81
2023/06/26 12:01:47;;;;;;;7.93;1.67;;;27.60;72.70;;;;;;4949929;28;20160;-81
2023/06/26 12:04:17;;;;;;;3.65;1.63;;;27.50;73.50;;;;;;4964310;28;20026;-80
2023/06/26 12:06:48;;;;;;;6.22;1.85;;;28.10;71.00;;;;;;4968927;28;20106;-83
2023/06/26 12:09:14;;;;;;;5.65;1.70;;;27.90;70.50;;;;;;4954890;28;20039;-84
2023/06/26 12:11:44;;;;;;;5.43;1.90;;;28.00;70.70;;;;;;4975154;28;20019;-85
2023/06/26 12:14:11;;;;;;;7.45;1.50;;;28.00;70.90;;;;;;4968919;28;20030;-83
2023/06/26 12:16:40;;;;;;;6.15;1.80;;;28.20;71.40;;;;;;4979113;28;20033;-83
2023/06/26 12:19:08;;;;;;;4.85;2.03;;;28.40;70.80;;;;;;4974398;28;20057;-82
2023/06/26 12:21:36;;;;;;;4.57;1.85;;;28.40;68.40;;;;;;4954921;28;20026;-83
2023/06/26 12:24:04;;;;;;;2.97;1.70;;;28.00;69.40;;;;;;4963881;28;20031;-82
2023/06/26 12:26:36;;;;;;;7.30;1.90;;;28.10;70.00;;;;;;4950190;28;20026;-83
2023/06/26 12:29:12;;;;;;;5.18;1.70;;;28.00;69.60;;;;;;4971102;28;20129;-84
2023/06/26 12:31:46;;;;;;;8.75;1.80;;;27.50;70.40;;;;;;4968580;28;20347;-83
2023/06/26 12:34:16;;;;;;;3.03;1.35;;;27.00;72.10;;;;;;4947104;28;20098;-84
2023/06/26 12:36:46;;;;;;;2.72;1.55;;;26.60;72.60;;;;;;4962357;28;20035;-81
2023/06/26 12:39:13;;;;;;;2.42;1.95;;;26.70;72.00;;;;;;4952274;28;20487;-81
2023/06/26 12:42:02;;;;;;;3.92;1.92;;;27.40;70.90;;;;;;4962850;28;20031;-82
2023/06/26 12:44:29;;;;;;;2.65;1.50;;;27.80;70.20;;;;;;4945054;28;20043;-84
2023/06/26 12:47:06;;;;;;;3.97;1.63;;;27.70;69.60;;;;;;4953736;28;20031;-82